createdAt,value
2022-09-07T00:00:51.196Z,1.67
2022-09-07T00:03:55.867Z,1.23
2022-09-07T00:06:58.895Z,1.50
2022-09-07T00:10:01.956Z,1.45
2022-09-07T00:13:04.964Z,1.30
2022-09-07T00:16:10.234Z,0.90
2022-09-07T00:19:13.774Z,1.15
2022-09-07T00:22:16.627Z,1.40
2022-09-07T00:25:19.394Z,1.52
2022-09-07T00:28:22.203Z,1.23
2022-09-07T00:31:26.401Z,1.60
2022-09-07T00:34:29.117Z,1.83
2022-09-07T00:37:31.912Z,1.30
2022-09-07T00:40:34.667Z,1.80
2022-09-07T00:43:38.676Z,1.13
2022-09-07T00:46:43.473Z,1.23
2022-09-07T00:49:46.431Z,1.38
2022-09-07T00:52:50.233Z,1.33
2022-09-07T00:55:53.598Z,1.38
2022-09-07T00:58:56.321Z,1.30
2022-09-07T01:02:00.515Z,1.48
2022-09-07T01:05:09.397Z,1.33
2022-09-07T01:08:12.844Z,1.50
2022-09-07T01:11:15.534Z,1.58
2022-09-07T01:14:18.673Z,2.30
2022-09-07T01:17:27.138Z,1.63
2022-09-07T01:20:37.914Z,1.33
2022-09-07T01:24:03.204Z,1.50
2022-09-07T01:27:53.986Z,2.45
2022-09-07T01:30:59.415Z,1.52
2022-09-07T01:34:04.207Z,1.65
2022-09-07T01:37:09.491Z,1.73
2022-09-07T01:40:14.545Z,1.88
2022-09-07T01:43:20.440Z,1.75
2022-09-07T01:46:27.673Z,1.85
2022-09-07T01:49:33.481Z,2.22
2022-09-07T01:52:39.332Z,2.15
2022-09-07T01:55:44.088Z,2.13
2022-09-07T01:58:47.349Z,2.55
2022-09-07T02:01:53.345Z,2.30
2022-09-07T02:04:57.622Z,1.85
2022-09-07T02:08:01.571Z,2.15
2022-09-07T02:11:05.654Z,2.30
2022-09-07T02:14:09.833Z,2.10
2022-09-07T02:17:17.106Z,2.22
2022-09-07T02:20:21.010Z,2.00
2022-09-07T02:23:25.192Z,2.30
2022-09-07T02:26:27.905Z,2.20
2022-09-07T02:29:31.158Z,2.28
2022-09-07T02:32:35.487Z,2.70
2022-09-07T02:35:38.259Z,2.28
2022-09-07T02:38:41.087Z,2.55
2022-09-07T02:41:44.713Z,2.72
2022-09-07T02:44:48.177Z,2.38
2022-09-07T02:48:00.452Z,2.88
2022-09-07T02:51:07.784Z,2.65
2022-09-07T02:54:18.384Z,2.65
2022-09-07T02:57:24.889Z,3.15
2022-09-07T03:00:27.562Z,3.22
2022-09-07T03:03:34.961Z,2.20
2022-09-07T03:06:39.589Z,2.40
2022-09-07T03:09:43.874Z,3.00
2022-09-07T03:12:47.527Z,2.42
2022-09-07T03:15:54.986Z,2.30
2022-09-07T03:18:59.743Z,2.67
2022-09-07T03:22:02.459Z,2.80
2022-09-07T03:25:06.278Z,2.53
2022-09-07T03:28:09.002Z,2.95
2022-09-07T03:31:11.902Z,2.38
2022-09-07T03:34:16.122Z,2.72
2022-09-07T03:37:18.857Z,2.75
2022-09-07T03:40:21.594Z,2.40
2022-09-07T03:43:25.398Z,2.55
2022-09-07T03:46:28.314Z,2.63
2022-09-07T03:49:32.497Z,2.45
2022-09-07T03:52:35.329Z,2.83
2022-09-07T03:55:38.075Z,3.03
2022-09-07T03:58:40.824Z,3.17
2022-09-07T04:01:43.599Z,3.50
2022-09-07T04:04:48.174Z,3.47
2022-09-07T04:07:52.483Z,2.40
2022-09-07T04:10:58.753Z,2.83
2022-09-07T04:14:01.630Z,3.47
2022-09-07T04:17:04.370Z,2.90
2022-09-07T04:20:09.891Z,2.95
2022-09-07T04:23:12.599Z,2.78
2022-09-07T04:26:16.651Z,2.72
2022-09-07T04:29:19.394Z,2.65
2022-09-07T04:32:22.135Z,2.40
2022-09-07T04:35:26.323Z,2.38
2022-09-07T04:38:29.321Z,2.80
2022-09-07T04:41:32.630Z,2.58
2022-09-07T04:44:35.534Z,2.92
2022-09-07T04:47:38.208Z,3.03
2022-09-07T04:50:42.221Z,2.42
2022-09-07T04:53:44.899Z,2.63
2022-09-07T04:56:47.573Z,2.88
2022-09-07T04:59:50.310Z,2.63
2022-09-07T05:02:52.976Z,3.17
2022-09-07T05:05:57.143Z,2.95
2022-09-07T05:08:59.964Z,2.97
2022-09-07T05:12:03.047Z,2.78
2022-09-07T05:15:06.745Z,3.42
2022-09-07T05:18:09.545Z,3.72
2022-09-07T05:21:14.628Z,4.00
2022-09-07T05:24:17.340Z,4.80
2022-09-07T05:27:20.092Z,5.47
2022-09-07T05:37:10.835Z,5.28
2022-09-07T05:40:15.317Z,5.60
2022-09-07T05:43:17.972Z,4.63
2022-09-07T05:46:20.746Z,5.35
2022-09-07T05:49:23.467Z,7.40
2022-09-07T05:52:27.503Z,6.15
2022-09-07T05:55:32.023Z,5.95
2022-09-07T05:58:34.953Z,6.13
2022-09-07T06:01:37.745Z,5.70
2022-09-07T06:04:40.577Z,5.15
2022-09-07T06:07:47.911Z,6.13
2022-09-07T06:10:50.617Z,5.32
2022-09-07T06:13:53.367Z,5.97
2022-09-07T06:16:56.153Z,6.35
2022-09-07T06:19:58.869Z,5.50
2022-09-07T06:23:02.986Z,5.32
2022-09-07T06:26:05.823Z,6.93
2022-09-07T06:29:10.061Z,5.38
2022-09-07T06:35:35.626Z,6.13
2022-09-07T06:38:39.878Z,7.55
2022-09-07T06:42:00.051Z,6.85
2022-09-07T06:45:02.851Z,7.22
2022-09-07T06:48:05.647Z,8.35
2022-09-07T06:51:10.336Z,6.60
2022-09-07T06:57:37.072Z,9.15
2022-09-07T07:00:39.838Z,9.02
2022-09-07T07:03:42.718Z,9.57
2022-09-07T07:06:45.394Z,10.23
2022-09-07T07:09:50.972Z,9.48
2022-09-07T07:12:57.385Z,10.25
2022-09-07T07:16:05.146Z,8.13
2022-09-07T07:19:07.852Z,7.95
2022-09-07T07:25:35.972Z,7.07
2022-09-07T07:32:01.838Z,8.65
2022-09-07T07:35:19.806Z,8.32
2022-09-07T07:41:55.444Z,6.93
2022-09-07T07:51:25.462Z,7.78
2022-09-07T07:54:28.090Z,6.90
2022-09-07T07:57:33.254Z,6.60
2022-09-07T08:00:52.965Z,5.85
2022-09-07T08:03:56.658Z,7.78
2022-09-07T08:06:59.236Z,6.03
2022-09-07T08:10:01.971Z,5.63
2022-09-07T08:13:07.101Z,8.10
2022-09-07T08:16:09.833Z,6.20
2022-09-07T08:19:12.487Z,5.95
2022-09-07T08:22:15.293Z,5.72
2022-09-07T08:25:18.935Z,6.45
2022-09-07T08:28:23.412Z,5.70
2022-09-07T08:31:26.081Z,5.70
2022-09-07T08:34:28.762Z,5.55
2022-09-07T08:37:31.404Z,5.25
2022-09-07T08:40:36.338Z,5.57
2022-09-07T08:43:48.973Z,5.13
2022-09-07T08:46:54.164Z,5.55
2022-09-07T08:50:01.180Z,5.10
2022-09-07T08:56:09.525Z,3.63
2022-09-07T08:59:16.353Z,3.08
2022-09-07T09:02:40.303Z,2.83
2022-09-07T09:05:44.747Z,2.95
2022-09-07T09:08:55.732Z,2.22
2022-09-07T09:12:02.117Z,2.97
2022-09-07T09:15:11.211Z,2.63
2022-09-07T09:18:19.443Z,3.35
2022-09-07T09:21:22.138Z,2.90
2022-09-07T09:24:24.672Z,2.40
2022-09-07T09:27:27.252Z,2.15
2022-09-07T09:30:31.500Z,2.10
2022-09-07T09:33:34.137Z,1.90
2022-09-07T09:36:37.570Z,2.13
2022-09-07T09:39:42.601Z,2.08
2022-09-07T09:42:45.263Z,1.80
2022-09-07T09:49:15.701Z,2.05
2022-09-07T09:52:42.952Z,2.20
2022-09-07T09:55:41.731Z,2.40
2022-09-07T10:05:49.532Z,2.35
2022-09-07T10:08:56.317Z,2.42
2022-09-07T10:12:07.741Z,1.92
2022-09-07T10:15:25.911Z,1.67
2022-09-07T10:18:33.435Z,2.88
2022-09-07T10:21:35.986Z,2.20
2022-09-07T10:24:39.814Z,1.58
2022-09-07T10:27:45.868Z,1.40
2022-09-07T10:30:56.549Z,1.10
2022-09-07T10:37:31.304Z,2.13
2022-09-07T10:40:35.184Z,2.10
2022-09-07T10:43:42.243Z,2.25
2022-09-07T10:47:02.693Z,1.63
2022-09-07T10:50:24.669Z,2.55
2022-09-07T10:53:41.193Z,1.38
2022-09-07T10:56:49.388Z,1.98
2022-09-07T11:00:10.543Z,1.90
2022-09-07T11:03:28.060Z,1.80
2022-09-07T11:06:33.603Z,2.03
2022-09-07T11:09:43.511Z,2.13
2022-09-07T11:12:46.069Z,1.38
2022-09-07T11:15:50.465Z,1.45
2022-09-07T11:19:35.030Z,1.98
2022-09-07T11:22:20.470Z,1.70
2022-09-07T11:25:32.620Z,2.20
2022-09-07T11:28:42.463Z,3.13
2022-09-07T11:31:47.444Z,2.05
2022-09-07T11:34:52.215Z,1.90
2022-09-07T11:37:59.465Z,1.73
2022-09-07T11:41:19.847Z,2.00
2022-09-07T11:44:24.709Z,2.05
2022-09-07T11:47:29.017Z,1.98
2022-09-07T11:50:33.254Z,2.35
2022-09-07T11:53:37.975Z,1.33
2022-09-07T11:56:45.740Z,2.33
2022-09-07T11:59:54.544Z,1.65
2022-09-07T12:03:13.000Z,1.58
2022-09-07T12:06:28.040Z,0.60
2022-09-07T12:09:39.782Z,0.85
2022-09-07T12:12:56.830Z,0.88
2022-09-07T12:16:01.211Z,1.35
2022-09-07T12:19:19.276Z,1.20
2022-09-07T12:22:22.216Z,2.38
2022-09-07T12:25:26.766Z,1.73
2022-09-07T12:29:06.469Z,1.45
2022-09-07T12:35:39.900Z,1.73
2022-09-07T12:39:07.241Z,1.50
2022-09-07T12:42:38.934Z,1.95
2022-09-07T12:45:49.883Z,1.95
2022-09-07T12:48:55.979Z,1.02
2022-09-07T12:52:04.938Z,1.88
2022-09-07T12:55:28.280Z,1.58
2022-09-07T12:58:39.373Z,1.85
2022-09-07T13:01:45.726Z,1.83
2022-09-07T13:04:54.144Z,1.65
2022-09-07T13:08:14.531Z,1.75
2022-09-07T13:11:18.414Z,2.33
2022-09-07T13:14:25.512Z,1.65
2022-09-07T13:17:42.591Z,1.45
2022-09-07T13:20:45.280Z,2.13
2022-09-07T13:24:46.327Z,1.60
2022-09-07T13:27:52.147Z,1.33
2022-09-07T13:31:03.373Z,1.95
2022-09-07T13:34:30.621Z,1.77
2022-09-07T13:37:45.567Z,1.52
2022-09-07T13:40:48.731Z,1.45
2022-09-07T13:43:51.851Z,1.67
2022-09-07T13:47:03.922Z,1.42
2022-09-07T13:50:15.699Z,1.38
2022-09-07T13:53:25.904Z,1.65
2022-09-07T13:56:34.429Z,1.42
2022-09-07T13:59:37.186Z,1.23
2022-09-07T14:02:41.701Z,1.65
2022-09-07T14:05:44.643Z,1.83
2022-09-07T14:08:50.820Z,2.25
2022-09-07T14:11:54.333Z,1.15
2022-09-07T14:15:09.616Z,1.33
2022-09-07T14:18:14.476Z,1.20
2022-09-07T14:21:19.073Z,1.25
2022-09-07T14:24:25.936Z,1.58
2022-09-07T14:30:36.297Z,1.37
2022-09-07T14:33:44.864Z,1.70
2022-09-07T14:36:49.386Z,1.23
2022-09-07T14:39:52.802Z,0.98
2022-09-07T14:42:58.426Z,1.15
2022-09-07T14:46:12.981Z,1.50
2022-09-07T14:49:19.805Z,1.60
2022-09-07T14:55:29.446Z,1.20
2022-09-07T14:58:32.491Z,1.40
2022-09-07T15:01:38.925Z,0.85
2022-09-07T15:04:43.233Z,1.00
2022-09-07T15:07:47.550Z,1.55
2022-09-07T15:14:21.231Z,1.67
2022-09-07T15:20:49.063Z,1.50
2022-09-07T15:23:52.426Z,1.73
2022-09-07T15:27:02.964Z,1.67
2022-09-07T15:30:07.033Z,1.67
2022-09-07T15:33:11.438Z,2.80
2022-09-07T15:36:16.295Z,1.70
2022-09-07T15:39:19.868Z,1.50
2022-09-07T15:45:45.407Z,2.30
2022-09-07T15:48:50.408Z,1.65
2022-09-07T15:52:11.216Z,1.90
2022-09-07T15:55:17.115Z,2.10
2022-09-07T15:58:20.436Z,1.17
2022-09-07T16:04:46.082Z,1.40
2022-09-07T16:11:18.339Z,1.25
2022-09-07T16:14:21.588Z,2.00
2022-09-07T16:17:34.291Z,1.90
2022-09-07T16:20:41.041Z,1.60
2022-09-07T16:23:47.226Z,1.52
2022-09-07T16:26:50.040Z,1.20
2022-09-07T16:29:52.801Z,1.90
2022-09-07T16:32:55.917Z,1.65
2022-09-07T16:35:59.728Z,1.70
2022-09-07T16:39:04.395Z,2.10
2022-09-07T16:42:07.988Z,1.70
2022-09-07T16:48:34.781Z,1.38
2022-09-07T16:51:37.608Z,1.65
2022-09-07T16:54:41.826Z,1.83
2022-09-07T17:01:07.842Z,1.48
2022-09-07T17:04:11.506Z,1.40
2022-09-07T17:07:14.462Z,1.30
2022-09-07T17:10:18.571Z,1.48
2022-09-07T17:13:21.313Z,1.38
2022-09-07T17:16:24.888Z,1.38
2022-09-07T17:19:29.202Z,1.50
2022-09-07T17:22:32.144Z,1.60
2022-09-07T17:25:37.695Z,1.10
2022-09-07T17:28:40.956Z,1.97
2022-09-07T17:35:06.993Z,1.23
2022-09-07T17:41:36.443Z,1.55
2022-09-07T17:44:39.051Z,1.73
2022-09-07T17:47:41.678Z,1.10
2022-09-07T17:50:44.493Z,1.33
2022-09-07T17:53:47.159Z,2.20
2022-09-07T17:56:51.257Z,1.67
2022-09-07T18:00:11.439Z,1.60
2022-09-07T18:03:14.351Z,1.83
2022-09-07T18:06:17.061Z,1.70
2022-09-07T18:09:20.308Z,1.83
2022-09-07T18:12:24.348Z,1.70
2022-09-07T18:15:27.068Z,1.40
2022-09-07T18:18:29.795Z,2.15
2022-09-07T18:21:33.792Z,2.50
2022-09-07T18:24:37.145Z,2.30
2022-09-07T18:27:41.416Z,2.25
2022-09-07T18:30:44.288Z,2.40
2022-09-07T18:33:47.689Z,1.90
2022-09-07T18:36:50.408Z,2.83
2022-09-07T18:39:54.362Z,1.95
2022-09-07T18:42:58.720Z,1.77
2022-09-07T18:46:02.995Z,1.70
2022-09-07T18:49:05.639Z,1.83
2022-09-07T18:55:32.254Z,2.60
2022-09-07T18:58:36.457Z,1.60
2022-09-07T19:01:39.513Z,1.73
2022-09-07T19:08:06.986Z,1.67
2022-09-07T19:11:10.744Z,1.70
2022-09-07T19:14:15.812Z,1.70
2022-09-07T19:17:18.475Z,1.50
2022-09-07T19:20:21.123Z,1.80
2022-09-07T19:23:23.817Z,1.85
2022-09-07T19:26:27.403Z,2.00
2022-09-07T19:29:31.628Z,1.67
2022-09-07T19:32:34.231Z,2.00
2022-09-07T19:35:37.122Z,1.40
2022-09-07T19:38:40.837Z,1.77
2022-09-07T19:41:45.084Z,1.90
2022-09-07T19:44:49.274Z,2.22
2022-09-07T19:47:51.895Z,1.70
2022-09-07T19:50:54.611Z,1.55
2022-09-07T19:53:57.270Z,2.00
2022-09-07T19:57:01.248Z,1.35
2022-09-07T20:00:06.652Z,1.70
2022-09-07T20:03:10.558Z,2.00
2022-09-07T20:06:14.555Z,3.42
2022-09-07T20:09:17.412Z,2.65
2022-09-07T20:12:20.142Z,2.53
2022-09-07T20:15:24.522Z,3.30
2022-09-07T20:18:27.617Z,2.30
2022-09-07T20:21:30.295Z,2.75
2022-09-07T20:24:34.188Z,2.72
2022-09-07T20:27:36.739Z,2.50
2022-09-07T20:30:44.703Z,3.45
2022-09-07T20:33:47.687Z,2.55
2022-09-07T20:36:50.404Z,2.78
2022-09-07T20:39:53.139Z,3.65
2022-09-07T20:42:55.868Z,2.42
2022-09-07T20:46:00.088Z,2.10
2022-09-07T20:49:03.681Z,2.40
2022-09-07T20:52:06.408Z,3.03
2022-09-07T20:55:09.991Z,3.00
2022-09-07T20:58:12.632Z,2.90
2022-09-07T21:01:17.832Z,3.05
2022-09-07T21:04:20.670Z,2.88
2022-09-07T21:07:23.499Z,3.17
2022-09-07T21:10:26.950Z,2.67
2022-09-07T21:13:29.712Z,3.03
2022-09-07T21:16:34.113Z,2.55
2022-09-07T21:19:37.318Z,2.38
2022-09-07T21:22:39.998Z,1.70
2022-09-07T21:25:45.857Z,1.95
2022-09-07T21:28:48.629Z,1.80
2022-09-07T21:31:53.437Z,1.55
2022-09-07T21:34:56.621Z,2.25
2022-09-07T21:37:59.316Z,1.73
2022-09-07T21:41:06.771Z,1.63
2022-09-07T21:44:11.219Z,1.63
2022-09-07T21:47:15.763Z,1.40
2022-09-07T21:50:18.644Z,1.30
2022-09-07T21:53:21.478Z,1.30
2022-09-07T21:56:24.324Z,1.40
2022-09-07T21:59:26.977Z,1.20
2022-09-07T22:02:30.928Z,1.27
2022-09-07T22:05:36.785Z,1.27
2022-09-07T22:08:40.562Z,1.40
2022-09-07T22:11:45.993Z,1.35
2022-09-07T22:14:49.129Z,1.10
2022-09-07T22:17:55.267Z,1.13
2022-09-07T22:21:05.442Z,1.67
2022-09-07T22:24:08.295Z,1.23
2022-09-07T22:27:11.128Z,1.35
2022-09-07T22:30:14.112Z,1.60
2022-09-07T22:33:18.117Z,2.10
2022-09-07T22:36:21.824Z,1.65
2022-09-07T22:39:24.508Z,1.60
2022-09-07T22:42:27.169Z,1.70
2022-09-07T22:45:29.851Z,1.65
2022-09-07T22:48:33.923Z,2.60
2022-09-07T22:51:36.610Z,1.83
2022-09-07T22:54:39.229Z,1.85
2022-09-07T22:57:41.816Z,1.50
2022-09-07T23:00:45.067Z,1.75
2022-09-07T23:03:49.300Z,2.00
2022-09-07T23:06:52.012Z,1.70
2022-09-07T23:09:54.718Z,1.70
2022-09-07T23:12:57.427Z,1.88
2022-09-07T23:16:04.066Z,1.75
2022-09-07T23:19:08.050Z,2.03
2022-09-07T23:22:10.667Z,1.42
2022-09-07T23:25:13.265Z,1.50
2022-09-07T23:28:15.809Z,1.45
2022-09-07T23:31:18.442Z,1.50
2022-09-07T23:34:22.550Z,1.90
2022-09-07T23:37:25.232Z,2.00
2022-09-07T23:40:30.184Z,1.30
2022-09-07T23:43:33.034Z,1.75
2022-09-07T23:46:35.871Z,2.30
2022-09-07T23:49:39.986Z,2.30
2022-09-07T23:52:42.572Z,2.10
2022-09-07T23:55:45.884Z,2.78
2022-09-07T23:58:48.701Z,4.82
